Archer, Wyoming
Current Conditions -  °F | °C
As of 2:53 PM on Sunday 23 Nov 2014 (Local Time) from KCYS Reporting Station
Clear Clear  
Wind Chill: 17°   Ceiling: Unl
Heat Index: 32°   Visibility: 10mi
Dew Point:   Wind: 32mph
Humidity: 38%   Direction: 330°NNW
Pressure: 29.79"   Gusts: 43mph
Location:  41.4091°N, 104.861°W
Report Text: KCYS 232153Z 33028G37KT 10SM CLR 00/M13 A2979 RMK AO2 PK WND 34037/2152 SLP107 T00001128
Loading
Personal Weather Stations






























Interactive Weather Map New forecast layout! Learn more

10-Day Weather Forecast

Advertisements
Track Severe Weather on mobile